createdAt,value
2022-08-26T00:04:18.454Z,61.30
2022-08-26T00:09:23.419Z,61.36
2022-08-26T00:14:30.962Z,61.35
2022-08-26T00:19:34.109Z,61.31
2022-08-26T00:24:36.985Z,61.44
2022-08-26T00:29:41.163Z,61.74
2022-08-26T00:34:44.242Z,61.63
2022-08-26T00:39:47.107Z,61.75
2022-08-26T00:44:50.715Z,61.80
2022-08-26T00:49:54.056Z,61.81
2022-08-26T00:55:20.497Z,61.77
2022-08-26T01:00:27.865Z,62.04
2022-08-26T01:05:32.626Z,62.16
2022-08-26T01:10:35.761Z,62.29
2022-08-26T01:15:50.015Z,62.27
2022-08-26T01:21:22.485Z,62.20
2022-08-26T01:26:40.647Z,61.77
2022-08-26T01:31:49.661Z,61.71
2022-08-26T01:37:11.709Z,61.06
2022-08-26T01:42:21.379Z,60.86
2022-08-26T01:47:30.198Z,60.62
2022-08-26T01:52:38.074Z,60.64
2022-08-26T01:57:43.243Z,60.74
2022-08-26T02:02:49.974Z,61.16
2022-08-26T02:07:53.090Z,61.09
2022-08-26T02:12:56.266Z,60.95
2022-08-26T02:18:03.196Z,60.93
2022-08-26T02:23:07.139Z,61.05
2022-08-26T02:28:12.766Z,61.02
2022-08-26T02:33:15.626Z,61.08
2022-08-26T02:38:18.560Z,61.10
2022-08-26T02:43:23.858Z,61.44
2022-08-26T02:48:34.436Z,61.42
2022-08-26T02:53:39.276Z,61.59
2022-08-26T02:58:42.673Z,61.72
2022-08-26T03:03:46.619Z,62.23
2022-08-26T03:08:53.114Z,62.27
2022-08-26T03:13:55.928Z,62.39
2022-08-26T03:18:58.807Z,62.47
2022-08-26T03:24:02.142Z,62.21
2022-08-26T03:29:34.988Z,62.20
2022-08-26T03:34:37.967Z,62.03
2022-08-26T03:39:41.953Z,61.61
2022-08-26T03:44:44.751Z,61.78
2022-08-26T03:49:47.609Z,62.06
2022-08-26T03:54:51.002Z,62.06
2022-08-26T03:59:53.851Z,61.79
2022-08-26T04:04:56.943Z,61.42
2022-08-26T04:09:59.872Z,61.83
2022-08-26T04:15:09.157Z,60.89
2022-08-26T04:20:16.244Z,60.31
2022-08-26T04:25:20.624Z,60.18
2022-08-26T04:30:23.643Z,59.99
2022-08-26T04:35:28.689Z,59.06
2022-08-26T04:40:32.623Z,61.29
2022-08-26T04:45:40.646Z,66.91
2022-08-26T04:50:43.636Z,63.68
2022-08-26T04:55:46.612Z,61.79
2022-08-26T05:00:54.105Z,60.46
2022-08-26T05:05:57.415Z,58.96
2022-08-26T05:11:05.339Z,60.23
2022-08-26T05:16:11.923Z,65.24
2022-08-26T05:21:37.123Z,61.94
2022-08-26T05:26:42.541Z,59.65
2022-08-26T05:31:51.737Z,59.20
2022-08-26T05:36:59.306Z,62.41
2022-08-26T05:42:03.370Z,58.62
2022-08-26T05:47:07.776Z,60.78
2022-08-26T05:52:11.839Z,57.28
2022-08-26T05:57:15.905Z,59.12
2022-08-26T06:02:18.959Z,59.79
2022-08-26T06:07:42.430Z,57.12
2022-08-26T06:12:45.448Z,54.15
2022-08-26T06:17:48.517Z,50.20
2022-08-26T06:23:11.381Z,47.13
2022-08-26T06:28:15.482Z,40.92
2022-08-26T06:33:23.500Z,43.42
2022-08-26T06:38:26.369Z,44.89
2022-08-26T06:43:29.854Z,47.08
2022-08-26T06:48:32.923Z,49.16
2022-08-26T06:53:36.986Z,50.78
2022-08-26T06:58:42.043Z,52.35
2022-08-26T07:03:46.640Z,51.72
2022-08-26T07:08:52.602Z,53.42
2022-08-26T07:13:56.039Z,53.69
2022-08-26T07:18:59.023Z,55.26
2022-08-26T07:24:04.568Z,55.14
2022-08-26T07:29:07.446Z,54.99
2022-08-26T07:34:14.000Z,52.38
2022-08-26T07:39:17.188Z,47.02
2022-08-26T07:44:21.269Z,42.06
2022-08-26T07:49:26.737Z,39.75
2022-08-26T07:54:31.026Z,38.71
2022-08-26T07:59:34.191Z,38.34
2022-08-26T08:04:37.206Z,39.59
2022-08-26T08:09:41.548Z,41.67
2022-08-26T08:14:46.911Z,41.93
2022-08-26T08:19:51.591Z,44.96
2022-08-26T08:24:56.202Z,45.66
2022-08-26T08:30:00.491Z,45.29
2022-08-26T08:35:10.945Z,45.93
2022-08-26T08:40:18.338Z,44.80
2022-08-26T08:45:51.020Z,43.83
2022-08-26T08:51:01.698Z,43.60
2022-08-26T08:56:15.986Z,41.97
2022-08-26T09:01:26.443Z,39.47
2022-08-26T09:06:29.847Z,39.47
2022-08-26T09:11:32.956Z,41.22
2022-08-26T09:17:00.943Z,42.23
2022-08-26T09:22:08.735Z,43.52
2022-08-26T09:27:38.152Z,44.26
2022-08-26T09:32:42.151Z,44.44
2022-08-26T09:43:23.117Z,44.50
2022-08-26T09:48:36.291Z,44.49
2022-08-26T09:53:52.570Z,44.85
2022-08-26T09:58:57.332Z,44.46
2022-08-26T10:04:26.775Z,44.14
2022-08-26T10:09:37.061Z,44.83
2022-08-26T10:14:51.576Z,43.78
2022-08-26T10:20:23.457Z,43.48
2022-08-26T10:25:33.654Z,42.07
2022-08-26T10:30:47.352Z,43.17
2022-08-26T10:35:56.187Z,41.57
2022-08-26T10:41:10.400Z,42.35
2022-08-26T10:46:22.570Z,42.60
2022-08-26T10:51:42.202Z,40.98
2022-08-26T10:56:55.699Z,42.02
2022-08-26T11:02:11.804Z,42.21
2022-08-26T11:07:40.557Z,42.17
2022-08-26T11:12:49.096Z,41.98
2022-08-26T11:17:52.162Z,41.44
2022-08-26T11:23:17.523Z,41.46
2022-08-26T11:28:34.746Z,42.53
2022-08-26T11:34:03.367Z,41.95
2022-08-26T11:39:29.153Z,42.67
2022-08-26T11:44:49.343Z,42.76
2022-08-26T11:50:27.004Z,42.63
2022-08-26T11:55:32.590Z,44.22
2022-08-26T12:00:45.761Z,44.31
2022-08-26T12:05:52.571Z,44.04
2022-08-26T12:11:09.747Z,43.10
2022-08-26T12:16:13.925Z,43.32
2022-08-26T12:21:24.423Z,42.34
2022-08-26T12:26:30.992Z,42.13
2022-08-26T12:31:40.230Z,42.03
2022-08-26T12:36:55.270Z,41.04
2022-08-26T12:41:59.457Z,40.68
2022-08-26T12:47:10.976Z,40.82
2022-08-26T12:52:30.212Z,40.44
2022-08-26T12:57:37.538Z,39.59
2022-08-26T13:02:40.502Z,40.86
2022-08-26T13:07:46.088Z,41.02
2022-08-26T13:12:49.093Z,39.69
2022-08-26T13:17:52.317Z,40.11
2022-08-26T13:22:59.609Z,40.87
2022-08-26T13:28:02.802Z,40.02
2022-08-26T13:33:05.813Z,40.45
2022-08-26T13:38:18.590Z,38.49
2022-08-26T13:43:37.332Z,38.47
2022-08-26T13:48:43.305Z,37.62
2022-08-26T13:53:48.668Z,38.03
2022-08-26T13:58:51.780Z,38.47
2022-08-26T14:03:56.345Z,39.03
2022-08-26T14:08:59.654Z,38.70
2022-08-26T14:14:04.184Z,37.43
2022-08-26T14:19:09.052Z,38.44
2022-08-26T14:24:12.218Z,39.56
2022-08-26T14:29:16.789Z,40.69
2022-08-26T14:34:20.223Z,41.03
2022-08-26T14:39:23.359Z,41.57
2022-08-26T14:44:32.158Z,41.74
2022-08-26T14:49:35.195Z,41.98
2022-08-26T14:54:38.239Z,41.55
2022-08-26T14:59:45.450Z,41.00
2022-08-26T15:04:53.574Z,41.10
2022-08-26T15:09:56.591Z,40.75
2022-08-26T15:14:59.665Z,40.69
2022-08-26T15:20:04.122Z,40.85
2022-08-26T15:25:08.398Z,41.19
2022-08-26T15:30:12.922Z,40.95
2022-08-26T15:35:15.976Z,41.09
2022-08-26T15:40:22.069Z,41.29
2022-08-26T15:45:26.399Z,41.81
2022-08-26T15:50:30.017Z,42.37
2022-08-26T15:55:33.056Z,42.55
2022-08-26T16:00:37.347Z,43.52
2022-08-26T16:05:43.641Z,44.10
2022-08-26T16:10:50.599Z,44.59
2022-08-26T16:15:53.841Z,45.08
2022-08-26T16:21:13.479Z,45.28
2022-08-26T16:26:20.736Z,45.59
2022-08-26T16:31:23.893Z,45.94
2022-08-26T16:36:27.116Z,46.79
2022-08-26T16:41:31.501Z,46.97
2022-08-26T16:46:37.004Z,47.14
2022-08-26T16:51:40.578Z,47.67
2022-08-26T16:56:43.501Z,48.39
2022-08-26T17:01:46.501Z,49.08
2022-08-26T17:06:50.276Z,49.21
2022-08-26T17:11:54.436Z,49.68
2022-08-26T17:16:57.801Z,50.10
2022-08-26T17:22:00.786Z,50.89
2022-08-26T17:27:09.268Z,51.01
2022-08-26T17:32:12.874Z,52.86
2022-08-26T17:37:16.997Z,54.33
2022-08-26T17:42:19.983Z,55.65
2022-08-26T17:47:23.390Z,55.97
2022-08-26T17:52:26.246Z,56.76
2022-08-26T17:57:31.338Z,57.39
2022-08-26T18:02:38.189Z,57.40
2022-08-26T18:07:44.064Z,56.25
2022-08-26T18:12:50.922Z,56.47
2022-08-26T18:17:55.157Z,55.71
2022-08-26T18:22:59.319Z,55.44
2022-08-26T18:28:03.117Z,55.57
2022-08-26T18:33:05.988Z,55.48
2022-08-26T18:38:11.031Z,54.99
2022-08-26T18:43:16.035Z,55.39
2022-08-26T18:48:18.880Z,55.05
2022-08-26T18:53:21.787Z,55.24
2022-08-26T18:58:25.570Z,55.35
2022-08-26T19:03:28.796Z,55.15
2022-08-26T19:08:32.001Z,55.26
2022-08-26T19:13:36.541Z,55.91
2022-08-26T19:18:39.473Z,56.87
2022-08-26T19:23:42.879Z,56.75
2022-08-26T19:28:45.810Z,57.11
2022-08-26T19:33:48.818Z,57.07
2022-08-26T19:38:55.995Z,57.50
2022-08-26T19:43:59.534Z,57.75
2022-08-26T19:49:03.200Z,57.53
2022-08-26T19:54:06.529Z,57.58
2022-08-26T19:59:09.400Z,57.77
2022-08-26T20:04:12.663Z,57.86
2022-08-26T20:09:15.572Z,57.89
2022-08-26T20:14:22.960Z,58.27
2022-08-26T20:19:45.756Z,58.97
2022-08-26T20:24:49.802Z,58.96
2022-08-26T20:29:54.024Z,59.81
2022-08-26T20:34:57.368Z,59.97
2022-08-26T20:40:01.529Z,59.42
2022-08-26T20:45:06.847Z,60.44
2022-08-26T20:50:10.982Z,60.58
2022-08-26T20:55:14.338Z,60.78
2022-08-26T21:00:22.771Z,60.68
2022-08-26T21:05:29.599Z,61.02
2022-08-26T21:10:32.671Z,68.09
2022-08-26T21:15:35.819Z,60.84
2022-08-26T21:20:38.713Z,56.05
2022-08-26T21:25:42.456Z,56.93
2022-08-26T21:30:45.423Z,58.16
2022-08-26T21:35:55.593Z,59.14
2022-08-26T21:41:05.265Z,60.09
2022-08-26T21:46:14.293Z,60.65
2022-08-26T21:51:20.009Z,66.73
2022-08-26T21:56:26.467Z,61.44
2022-08-26T22:01:35.079Z,56.33
2022-08-26T22:06:45.460Z,58.09
2022-08-26T22:11:49.120Z,59.83
2022-08-26T22:16:52.259Z,60.92
2022-08-26T22:21:56.519Z,66.74
2022-08-26T22:26:59.386Z,61.38
2022-08-26T22:32:02.519Z,56.78
2022-08-26T22:37:06.651Z,58.30
2022-08-26T22:42:09.594Z,60.66
2022-08-26T22:47:13.473Z,65.50
2022-08-26T22:52:16.426Z,60.29
2022-08-26T22:57:21.214Z,58.81
2022-08-26T23:02:24.439Z,61.18
2022-08-26T23:07:27.671Z,66.49
2022-08-26T23:12:31.645Z,61.99
2022-08-26T23:17:36.089Z,58.15
2022-08-26T23:22:40.298Z,60.66
2022-08-26T23:27:43.763Z,65.88
2022-08-26T23:32:47.013Z,62.05
2022-08-26T23:37:53.453Z,57.90
2022-08-26T23:43:04.741Z,60.51
2022-08-26T23:48:08.540Z,65.67
2022-08-26T23:53:25.835Z,61.76
2022-08-26T23:58:28.769Z,57.83
